Time;durP1;ratioP1;P1;durP2;ratioP2;P2;SDS_P1;SDS_P2;PMS_P1;PMS_P2;Temp;Humidity;BMP_temperature;BMP_pressure;BME280_temperature;BME280_humidity;BME280_pressure;Samples;Min_cycle;Max_cycle;Signal;HPM_P1;HPM_P2
2022/06/28 00:05:57;;;;;;;12.98;9.90;;;;;;;19.72;74.42;99078.08;3840109;91;21091;-84
2022/06/28 00:12:04;;;;;;;14.73;10.27;;;;;;;19.64;74.74;99082.23;3832182;91;21124;-83
2022/06/28 00:18:06;;;;;;;14.05;9.85;;;;;;;19.45;75.21;99074.16;3800872;93;21072;-85
2022/06/28 00:24:08;;;;;;;13.28;9.05;;;;;;;19.33;75.52;99069.30;3846202;91;21084;-84
2022/06/28 00:30:10;;;;;;;11.70;8.78;;;;;;;19.22;76.07;99070.70;3828351;92;21190;-84
2022/06/28 00:36:11;;;;;;;10.48;8.78;;;;;;;19.16;76.39;99075.99;3829309;92;21091;-84
2022/06/28 00:42:15;;;;;;;11.35;9.50;;;;;;;19.06;76.93;99088.09;3831794;92;21090;-84
2022/06/28 00:48:18;;;;;;;10.75;8.60;;;;;;;19.03;77.12;99085.42;3930328;89;21047;-85
2022/06/28 00:54:25;;;;;;;11.68;9.33;;;;;;;19.00;77.43;99083.47;3932313;89;21049;-84
2022/06/28 01:00:35;;;;;;;13.43;9.65;;;;;;;18.90;77.60;99081.72;3940138;89;21073;-84
2022/06/28 01:06:38;;;;;;;11.80;8.78;;;;;;;18.82;78.14;99091.40;3937196;89;21045;-84
2022/06/28 01:12:40;;;;;;;9.38;8.25;;;;;;;18.78;78.28;99085.16;3920099;89;21094;-83
2022/06/28 01:18:42;;;;;;;14.60;9.65;;;;;;;18.60;78.63;99079.33;3933792;89;21645;-83
2022/06/28 01:24:49;;;;;;;11.85;10.00;;;;;;;18.47;79.09;99064.56;3936670;89;21083;-83
2022/06/28 01:30:58;;;;;;;10.10;7.70;;;;;;;18.45;79.60;99076.67;3843463;91;21095;-83
2022/06/28 01:37:01;;;;;;;11.90;10.10;;;;;;;18.54;80.11;99087.20;3851923;91;21138;-83
2022/06/28 01:43:08;;;;;;;14.23;9.65;;;;;;;18.47;79.92;99095.64;3850559;91;21082;-84
2022/06/28 01:49:12;;;;;;;15.30;9.88;;;;;;;18.28;80.24;99099.92;3860147;91;21763;-84
2022/06/28 01:55:14;;;;;;;12.53;10.05;;;;;;;18.14;80.81;99098.80;3852308;91;21011;-84
2022/06/28 02:01:19;;;;;;;11.48;9.35;;;;;;;18.10;81.31;99106.98;3848186;91;21146;-84
2022/06/28 02:07:24;;;;;;;13.03;8.88;;;;;;;18.09;81.72;99117.28;3843104;91;21154;-83
2022/06/28 02:13:29;;;;;;;12.75;9.35;;;;;;;18.15;81.86;99124.52;3858665;91;22094;-83
2022/06/28 04:18:15;;;;;;;14.80;11.65;;;;;;;17.93;86.92;99164.23;4473054;77;26470;-85
2022/06/28 04:24:35;;;;;;;13.13;10.70;;;;;;;18.00;86.79;99150.28;4434576;78;20987;-85
2022/06/28 04:30:39;;;;;;;13.55;10.38;;;;;;;18.36;86.67;99144.91;4417036;78;21002;-85
2022/06/28 04:36:40;;;;;;;12.53;9.58;;;;;;;18.70;86.45;99150.44;4428945;78;20998;-85
2022/06/28 04:42:42;;;;;;;12.03;9.73;;;;;;;19.04;86.23;99151.57;4427115;78;21417;-85
2022/06/28 04:48:44;;;;;;;14.40;9.60;;;;;;;19.41;85.82;99151.80;4419063;78;21062;-85
2022/06/28 04:54:46;;;;;;;15.28;10.20;;;;;;;19.76;85.39;99161.48;4423080;78;21006;-85
2022/06/28 05:00:58;;;;;;;14.85;10.80;;;;;;;20.07;85.11;99157.80;4423057;78;21047;-85
2022/06/28 05:07:00;;;;;;;12.78;10.23;;;;;;;20.33;84.95;99164.34;4432249;78;21002;-86
2022/06/28 05:13:01;;;;;;;14.15;9.88;;;;;;;20.59;84.63;99157.69;4371537;78;21438;-86
2022/06/28 05:19:03;;;;;;;11.73;9.78;;;;;;;20.85;84.22;99147.62;4418345;78;21004;-85
2022/06/28 05:25:07;;;;;;;15.50;10.28;;;;;;;21.13;83.99;99138.49;4421177;78;20990;-85
2022/06/28 05:31:08;;;;;;;15.38;10.45;;;;;;;21.29;83.52;99135.64;4387058;78;21019;-86
2022/06/28 05:37:11;;;;;;;13.70;9.98;;;;;;;21.43;83.47;99133.03;4420921;78;21773;-87
2022/06/28 05:43:12;;;;;;;15.60;11.60;;;;;;;21.63;83.35;99121.06;4417548;78;21715;-87
2022/06/28 05:49:13;;;;;;;17.42;11.70;;;;;;;21.80;83.27;99114.80;4423403;78;21534;-87
2022/06/28 05:55:25;;;;;;;16.35;10.18;;;;;;;21.98;83.32;99102.45;4421079;78;21004;-87
2022/06/28 06:01:28;;;;;;;10.00;8.55;;;;;;;22.15;83.16;99102.47;4431496;78;21097;-83
2022/06/28 06:07:30;;;;;;;12.73;8.10;;;;;;;22.39;82.71;99105.03;4383255;78;20995;-86
2022/06/28 06:13:31;;;;;;;13.35;8.28;;;;;;;22.73;82.77;99095.27;4386926;78;21914;-85
2022/06/28 06:19:33;;;;;;;16.90;7.97;;;;;;;23.12;82.63;99098.79;4417573;78;21059;-86
2022/06/28 06:25:35;;;;;;;11.38;7.92;;;;;;;23.41;82.38;99095.11;4418612;78;22009;-85
2022/06/28 06:31:36;;;;;;;11.40;8.15;;;;;;;23.70;82.36;99098.33;4382553;78;21084;-85
2022/06/28 06:38:01;;;;;;;12.07;8.30;;;;;;;23.89;81.90;99104.75;4423374;78;20985;-85
2022/06/28 06:44:04;;;;;;;13.98;8.28;;;;;;;24.03;81.81;99107.00;4428824;78;21636;-85
2022/06/28 06:50:08;;;;;;;10.75;7.28;;;;;;;24.17;81.79;99104.39;4430202;78;21022;-86
2022/06/28 06:56:11;;;;;;;10.20;6.95;;;;;;;24.50;81.73;99110.97;4430618;78;20977;-86
2022/06/28 07:02:12;;;;;;;10.98;7.35;;;;;;;25.14;80.99;99120.12;4417056;78;20976;-86
2022/06/28 07:08:15;;;;;;;8.60;6.55;;;;;;;25.93;79.64;99113.19;4429689;78;21006;-86
2022/06/28 07:14:18;;;;;;;8.33;6.15;;;;;;;26.38;78.17;99116.35;4417214;78;21000;-86
2022/06/28 07:20:20;;;;;;;8.15;5.58;;;;;;;26.70;77.19;99109.27;4413992;79;21459;-87
2022/06/28 07:26:22;;;;;;;7.50;4.67;;;;;;;27.40;75.82;99115.34;4409371;79;21000;-86
2022/06/28 07:32:23;;;;;;;6.17;4.70;;;;;;;28.00;73.27;99114.78;4412321;79;21348;-86
2022/06/28 07:38:29;;;;;;;5.72;4.60;;;;;;;28.24;71.06;99106.91;4419755;79;20976;-86
2022/06/28 07:44:49;;;;;;;6.25;4.47;;;;;;;28.43;68.99;99103.97;4408882;79;20988;-86
2022/06/28 07:57:10;;;;;;;5.75;4.85;;;;;;;28.59;67.23;99093.58;4416350;79;21012;-87
2022/06/28 08:03:13;;;;;;;8.33;5.05;;;;;;;28.44;66.10;99094.90;4412861;79;21008;-86
2022/06/28 08:09:15;;;;;;;6.67;5.00;;;;;;;28.50;65.90;99097.93;4410439;79;20996;-86
2022/06/28 08:15:17;;;;;;;6.95;5.03;;;;;;;28.68;65.02;99101.09;4424846;78;21047;-86
2022/06/28 08:21:19;;;;;;;5.80;4.67;;;;;;;29.05;64.70;99111.23;4451774;78;21002;-86
2022/06/28 08:27:21;;;;;;;7.10;4.70;;;;;;;29.42;63.33;99114.81;4440542;78;21061;-86
2022/06/28 08:33:22;;;;;;;11.90;4.25;;;;;;;29.68;59.59;99117.75;4439903;78;21026;-86
2022/06/28 08:39:24;;;;;;;7.92;4.25;;;;;;;29.89;59.61;99119.20;4450996;78;21528;-86
2022/06/28 08:45:26;;;;;;;7.37;3.10;;;;;;;30.19;58.05;99133.13;4422082;78;21069;-87
2022/06/28 08:51:30;;;;;;;8.73;3.30;;;;;;;30.48;55.56;99134.83;4441846;78;21067;-86
2022/06/28 08:57:32;;;;;;;4.53;3.72;;;;;;;30.50;55.63;99128.05;4359750;80;21019;-85
2022/06/28 09:03:34;;;;;;;6.60;3.47;;;;;;;30.59;54.90;99118.59;4298432;81;21595;-85
2022/06/28 09:09:35;;;;;;;8.48;3.72;;;;;;;30.75;53.29;99112.98;4317811;81;21057;-87
2022/06/28 09:15:58;;;;;;;5.62;3.40;;;;;;;30.77;52.80;99101.98;4294996;81;21020;-86
2022/06/28 09:22:03;;;;;;;4.92;3.85;;;;;;;30.85;51.57;99114.98;4326762;80;20988;-86
2022/06/28 09:28:06;;;;;;;7.70;4.17;;;;;;;31.10;51.16;99102.07;4322926;80;21034;-87
2022/06/28 09:34:08;;;;;;;5.40;3.33;;;;;;;31.28;50.17;99105.03;4311123;81;21063;-87
2022/06/28 09:40:15;;;;;;;5.65;3.83;;;;;;;31.66;49.65;99114.20;4270030;81;21527;-87
2022/06/28 09:46:17;;;;;;;7.90;4.28;;;;;;;31.53;49.44;99116.14;4369321;80;20971;-87
2022/06/28 09:52:24;;;;;;;8.05;4.28;;;;;;;31.05;49.04;99117.59;4280195;81;20955;-86
2022/06/28 09:58:26;;;;;;;7.03;4.30;;;;;;;30.87;49.56;99136.45;4328531;80;21821;-85
2022/06/28 10:04:27;;;;;;;13.88;4.03;;;;;;;30.55;49.68;99191.61;4316350;80;20965;-84
2022/06/28 10:10:30;;;;;;;6.80;3.02;;;;;;;29.44;49.70;99247.01;4317622;80;21648;-83
2022/06/28 10:16:57;;;;;;;5.45;2.60;;;;;;;28.26;50.32;99264.05;4307056;80;21072;-85
2022/06/28 10:30:10;;;;;;;7.87;4.40;;;;;;;25.46;59.35;99307.84;4206180;82;21072;-88
2022/06/28 10:36:14;;;;;;;12.50;4.53;;;;;;;23.22;63.00;99294.50;4234870;82;20996;-84
2022/06/28 10:42:16;;;;;;;20.20;6.20;;;;;;;22.29;65.59;99276.27;4242884;82;21054;-88
2022/06/28 10:48:17;;;;;;;18.40;6.37;;;;;;;21.64;66.69;99293.33;4224401;82;21086;-86
2022/06/28 10:54:18;;;;;;;13.93;6.95;;;;;;;21.48;73.12;99326.05;4232509;82;21047;-86
2022/06/28 11:00:26;;;;;;;12.53;6.03;;;;;;;21.11;71.61;99322.48;4240480;82;21084;-87
2022/06/28 11:06:39;;;;;;;13.03;6.45;;;;;;;21.19;72.55;99302.98;4299361;81;21070;-87
2022/06/28 11:12:43;;;;;;;9.45;6.10;;;;;;;21.34;73.36;99306.34;4262530;81;21335;-87
2022/06/28 11:18:44;;;;;;;8.23;5.05;;;;;;;21.17;75.47;99329.08;4291795;81;22534;-87
2022/06/28 11:24:46;;;;;;;18.82;6.47;;;;;;;21.04;78.28;99341.54;4341992;80;20991;-85
2022/06/28 11:30:48;;;;;;;17.02;7.33;;;;;;;20.94;77.48;99344.56;4303636;80;22102;-84
2022/06/28 11:36:49;;;;;;;15.08;7.62;;;;;;;20.87;78.49;99361.42;4260295;81;21007;-84
2022/06/28 11:43:15;;;;;;;17.32;9.20;;;;;;;20.89;79.38;99337.50;4304224;81;20995;-85
2022/06/28 11:49:30;;;;;;;10.48;8.38;;;;;;;20.99;80.39;99310.66;4293793;81;21074;-86
2022/06/28 11:55:49;;;;;;;12.65;8.78;;;;;;;21.04;80.78;99330.41;4298525;81;20991;-86
2022/06/28 12:01:51;;;;;;;11.80;8.58;;;;;;;21.07;82.11;99342.05;4295923;81;20990;-87
2022/06/28 12:07:52;;;;;;;13.43;11.00;;;;;;;21.11;82.75;99348.30;4305107;81;21098;-87
2022/06/28 12:14:07;;;;;;;20.15;14.18;;;;;;;21.18;83.39;99357.08;4300348;81;21470;-85
2022/06/28 12:20:17;;;;;;;18.65;15.65;;;;;;;21.26;84.18;99374.57;4319186;80;21054;-84
2022/06/28 12:26:18;;;;;;;26.37;18.48;;;;;;;21.33;85.15;99375.00;4373130;80;20975;-86
2022/06/28 12:32:21;;;;;;;21.42;16.90;;;;;;;21.39;85.71;99377.42;4199863;81;10000380;-84
2022/06/28 12:38:23;;;;;;;27.70;20.90;;;;;;;21.50;86.76;99381.47;4311920;80;21534;-84
2022/06/28 12:44:24;;;;;;;28.07;21.35;;;;;;;21.71;87.22;99380.91;4318206;80;21563;-86
2022/06/28 12:50:25;;;;;;;23.10;19.48;;;;;;;21.92;87.88;99375.38;4320636;80;21029;-86
2022/06/28 12:56:27;;;;;;;23.12;19.15;;;;;;;22.19;88.58;99372.97;4328089;80;21838;-86
2022/06/28 13:02:29;;;;;;;30.90;26.57;;;;;;;22.42;89.20;99369.90;4318088;80;21021;-86
2022/06/28 13:08:30;;;;;;;30.85;27.75;;;;;;;22.63;89.88;99351.11;4373832;80;20998;-90
2022/06/28 13:14:31;;;;;;;35.88;32.10;;;;;;;22.83;90.46;99336.30;4290812;81;22071;-87
2022/06/28 13:20:33;;;;;;;31.15;27.95;;;;;;;22.93;90.71;99333.78;4264182;81;21514;-86
2022/06/28 13:26:34;;;;;;;30.75;27.65;;;;;;;23.02;90.70;99331.08;4289290;81;21067;-85
2022/06/28 13:32:36;;;;;;;27.27;24.40;;;;;;;23.18;91.22;99314.78;4301253;81;21466;-86
2022/06/28 13:38:39;;;;;;;28.98;26.10;;;;;;;23.26;91.52;99311.17;4347081;80;21069;-87
2022/06/28 13:44:40;;;;;;;29.98;26.87;;;;;;;23.32;92.21;99301.74;4343421;80;21056;-86
2022/06/28 13:50:42;;;;;;;31.93;28.73;;;;;;;23.41;92.01;99310.22;4259334;81;21101;-86
2022/06/28 13:56:43;;;;;;;30.65;27.58;;;;;;;23.50;92.88;99315.87;4273948;81;21886;-86
2022/06/28 14:02:45;;;;;;;27.27;24.55;;;;;;;23.55;93.01;99310.31;4265038;81;21095;-86
2022/06/28 14:08:47;;;;;;;15.43;14.03;;;;;;;23.58;93.69;99303.20;4264941;81;21021;-86
2022/06/28 14:14:48;;;;;;;17.48;15.68;;;;;;;23.61;93.37;99300.11;4290098;81;21054;-85
2022/06/28 14:20:50;;;;;;;16.48;14.00;;;;;;;23.58;93.35;99287.84;4258947;81;21484;-83
2022/06/28 14:26:51;;;;;;;16.02;12.53;;;;;;;23.59;93.95;99292.18;4298954;81;21495;-84
2022/06/28 14:32:52;;;;;;;11.45;9.48;;;;;;;23.60;94.25;99289.53;4292592;81;20959;-85
2022/06/28 14:38:53;;;;;;;7.70;7.00;;;;;;;23.60;94.09;99291.58;4298655;81;21038;-83
2022/06/28 14:44:55;;;;;;;7.97;6.00;;;;;;;23.57;94.17;99296.04;4294782;81;21506;-83
2022/06/28 14:50:56;;;;;;;4.87;4.37;;;;;;;23.44;93.63;99305.12;4293971;81;21910;-84
2022/06/28 14:56:58;;;;;;;6.20;4.45;;;;;;;23.28;93.22;99307.30;4302632;81;21515;-85
2022/06/28 15:03:00;;;;;;;8.83;4.28;;;;;;;23.11;93.35;99317.22;4303462;81;21053;-85
2022/06/28 15:09:02;;;;;;;10.30;7.03;;;;;;;23.02;93.03;99330.31;4283864;81;21601;-84
2022/06/28 15:15:04;;;;;;;7.72;4.72;;;;;;;22.88;92.97;99334.34;4301661;81;21723;-84
2022/06/28 15:21:05;;;;;;;6.45;4.97;;;;;;;22.82;93.00;99338.93;4291205;81;22169;-85
2022/06/28 15:33:29;;;;;;;6.40;5.10;;;;;;;22.90;92.68;99327.70;4301164;81;20990;-85
2022/06/28 15:39:32;;;;;;;7.50;4.87;;;;;;;22.96;92.59;99332.88;4297584;81;21504;-86
2022/06/28 15:45:33;;;;;;;8.75;6.22;;;;;;;23.03;92.53;99344.42;4300869;81;20954;-85
2022/06/28 15:51:35;;;;;;;6.35;5.75;;;;;;;23.15;92.19;99338.81;4298612;81;21039;-85
2022/06/28 15:57:37;;;;;;;7.87;6.53;;;;;;;23.29;92.75;99343.78;4294558;81;21050;-86
2022/06/28 16:03:39;;;;;;;11.48;7.05;;;;;;;23.47;92.21;99341.14;4300686;81;21036;-87
2022/06/28 16:09:40;;;;;;;10.00;8.53;;;;;;;23.63;92.01;99337.56;4304638;81;21054;-85
2022/06/28 16:15:41;;;;;;;8.30;7.47;;;;;;;23.75;91.53;99333.91;4290504;81;21047;-87
2022/06/28 16:21:43;;;;;;;11.00;8.48;;;;;;;23.79;91.12;99332.39;4298353;81;21429;-86
2022/06/28 16:27:45;;;;;;;10.08;8.85;;;;;;;23.85;90.72;99329.17;4290770;81;21064;-85
2022/06/28 16:33:47;;;;;;;10.88;8.73;;;;;;;23.85;90.63;99329.17;4287702;81;21030;-86
2022/06/28 16:39:48;;;;;;;9.83;8.15;;;;;;;23.80;90.41;99329.14;4296349;81;21043;-86
2022/06/28 16:45:49;;;;;;;10.18;8.63;;;;;;;23.79;89.79;99329.59;4307524;81;21015;-87
2022/06/28 16:51:51;;;;;;;9.85;8.30;;;;;;;23.76;89.33;99327.72;4302638;81;21064;-86
2022/06/28 16:57:53;;;;;;;11.68;8.65;;;;;;;23.73;89.22;99324.41;4290396;81;21036;-87
2022/06/28 17:03:54;;;;;;;11.50;8.83;;;;;;;23.62;89.00;99319.22;4286139;81;21041;-87
2022/06/28 17:09:58;;;;;;;12.47;8.78;;;;;;;23.59;88.87;99308.95;4296244;81;20977;-87
2022/06/28 17:16:00;;;;;;;9.73;8.75;;;;;;;23.57;88.86;99312.81;4295958;81;21016;-87
2022/06/28 17:22:01;;;;;;;13.65;9.45;;;;;;;23.57;88.58;99307.22;4294617;81;21105;-86
2022/06/28 17:28:03;;;;;;;9.65;7.78;;;;;;;23.57;88.63;99305.06;4302562;81;21097;-86
2022/06/28 17:34:04;;;;;;;10.82;7.60;;;;;;;23.42;88.03;99297.02;4298788;81;21019;-86
2022/06/28 17:40:08;;;;;;;7.50;6.78;;;;;;;23.32;87.57;99287.77;4285412;81;20979;-86
2022/06/28 17:46:09;;;;;;;7.42;6.55;;;;;;;23.23;87.15;99277.91;4292753;81;21038;-86
2022/06/28 17:52:11;;;;;;;9.45;5.92;;;;;;;23.13;86.82;99265.11;4289111;81;21055;-86
2022/06/28 17:58:12;;;;;;;8.13;6.87;;;;;;;23.08;86.68;99272.03;4297205;81;21030;-86
2022/06/28 18:04:15;;;;;;;10.20;6.75;;;;;;;23.08;86.85;99261.49;4293135;81;21640;-87
2022/06/28 18:10:16;;;;;;;12.50;6.53;;;;;;;22.99;86.99;99273.98;4296442;81;21058;-88
2022/06/28 18:16:18;;;;;;;6.70;6.00;;;;;;;22.87;87.06;99267.80;4293331;81;21511;-86
2022/06/28 18:22:20;;;;;;;7.33;6.30;;;;;;;22.72;87.01;99263.30;4247835;82;20982;-86
2022/06/28 18:28:21;;;;;;;8.78;6.12;;;;;;;22.51;87.34;99278.55;4245584;82;21054;-86
2022/06/28 18:34:23;;;;;;;8.28;5.87;;;;;;;22.44;87.45;99288.56;4247000;82;21024;-86
2022/06/28 18:40:25;;;;;;;7.45;6.08;;;;;;;22.44;87.41;99295.53;4249518;82;21024;-85
2022/06/28 18:46:32;;;;;;;10.72;5.87;;;;;;;22.36;87.20;99303.95;4248022;82;21550;-86
2022/06/28 18:52:34;;;;;;;8.13;6.28;;;;;;;22.08;87.13;99297.86;4253989;82;21007;-86
2022/06/28 18:58:35;;;;;;;8.60;7.03;;;;;;;21.91;87.25;99311.09;4241738;82;21806;-86
2022/06/28 19:04:38;;;;;;;7.45;6.12;;;;;;;21.94;87.56;99315.02;4239309;82;21048;-85
2022/06/28 19:10:39;;;;;;;7.97;6.35;;;;;;;21.92;87.82;99336.36;4245714;82;21024;-86
2022/06/28 19:16:41;;;;;;;11.38;8.40;;;;;;;21.80;88.13;99343.30;4249990;82;21525;-86
2022/06/28 19:22:42;;;;;;;8.73;7.80;;;;;;;21.61;88.32;99351.95;4288345;81;21082;-86
2022/06/28 19:28:43;;;;;;;10.72;8.03;;;;;;;21.51;88.93;99369.13;4303402;81;21067;-85
2022/06/28 19:34:45;;;;;;;9.28;8.33;;;;;;;21.49;89.44;99386.09;4303140;81;21983;-86
2022/06/28 19:40:46;;;;;;;12.50;9.83;;;;;;;21.44;89.99;99380.45;4295159;81;21033;-86
2022/06/28 19:46:48;;;;;;;11.22;9.78;;;;;;;21.36;90.43;99390.20;4286278;81;21476;-86
2022/06/28 19:52:49;;;;;;;15.23;10.95;;;;;;;21.23;90.85;99390.77;4292208;81;21103;-86
2022/06/28 19:58:51;;;;;;;10.93;9.23;;;;;;;21.18;91.45;99395.45;4310478;81;21554;-86
2022/06/28 20:04:52;;;;;;;11.15;9.63;;;;;;;21.17;91.93;99400.83;4291153;81;21055;-86
2022/06/28 20:10:53;;;;;;;9.83;8.80;;;;;;;21.17;92.22;99389.70;4305105;81;21878;-86
2022/06/28 20:16:55;;;;;;;13.83;9.23;;;;;;;21.15;92.53;99385.80;4294927;81;21019;-85
2022/06/28 20:22:56;;;;;;;9.73;8.10;;;;;;;21.05;92.79;99384.05;4296127;81;21044;-86
2022/06/28 20:29:01;;;;;;;10.40;9.30;;;;;;;20.99;93.06;99377.45;4294856;81;20993;-86
2022/06/28 20:35:04;;;;;;;13.43;9.58;;;;;;;20.88;93.44;99372.12;4290307;81;20993;-85
2022/06/28 20:47:25;;;;;;;11.08;9.78;;;;;;;20.78;94.19;99354.30;4297694;81;21011;-85
2022/06/28 20:53:27;;;;;;;12.33;10.63;;;;;;;20.70;94.62;99345.95;4297161;81;21739;-85
2022/06/28 20:59:28;;;;;;;19.48;10.18;;;;;;;20.69;94.97;99352.73;4298725;81;21937;-85
2022/06/28 21:05:29;;;;;;;14.40;9.93;;;;;;;20.66;95.46;99360.53;4269473;81;21028;-85
2022/06/28 21:11:31;;;;;;;14.87;11.08;;;;;;;20.69;95.86;99353.50;4301590;81;20999;-86
2022/06/28 21:17:33;;;;;;;16.42;11.90;;;;;;;20.67;96.05;99362.12;4293853;81;21022;-86
2022/06/28 21:23:34;;;;;;;13.10;11.33;;;;;;;20.64;96.42;99369.31;4294441;81;21034;-86
2022/06/28 21:29:35;;;;;;;13.55;9.78;;;;;;;20.59;96.55;99379.59;4301473;81;21472;-86
2022/06/28 21:35:38;;;;;;;13.62;10.35;;;;;;;20.60;97.09;99374.19;4300665;81;20982;-85
2022/06/28 21:41:39;;;;;;;18.17;11.35;;;;;;;20.58;97.05;99382.80;4313075;81;21043;-85
2022/06/28 21:47:41;;;;;;;12.73;10.23;;;;;;;20.57;97.53;99386.18;4306004;81;20976;-85
2022/06/28 21:53:42;;;;;;;11.85;10.65;;;;;;;20.64;97.65;99388.02;4332514;80;21077;-86
2022/06/28 21:59:44;;;;;;;14.20;10.38;;;;;;;20.66;97.83;99386.95;4341340;80;20965;-85
2022/06/28 22:05:45;;;;;;;13.13;11.28;;;;;;;20.64;98.04;99376.89;4264283;81;21045;-85
2022/06/28 22:11:47;;;;;;;14.60;11.22;;;;;;;20.60;98.26;99376.97;4269697;81;22257;-85
2022/06/28 22:17:49;;;;;;;13.35;11.90;;;;;;;20.51;98.40;99385.73;4288605;81;21026;-86
2022/06/28 22:23:51;;;;;;;16.67;13.35;;;;;;;20.47;98.56;99383.02;4370460;80;21066;-85
2022/06/28 22:29:52;;;;;;;16.70;14.75;;;;;;;20.39;98.80;99388.56;4359314;80;21060;-85
2022/06/28 22:35:54;;;;;;;18.87;15.55;;;;;;;20.27;98.86;99376.72;4368442;80;21035;-85
2022/06/28 22:41:55;;;;;;;18.02;14.55;;;;;;;20.20;99.29;99379.05;4282598;81;21515;-85
2022/06/28 22:47:56;;;;;;;15.35;13.78;;;;;;;20.12;99.25;99362.94;4283518;81;21330;-86
2022/06/28 22:53:58;;;;;;;14.30;12.78;;;;;;;20.00;99.46;99362.19;4294745;81;21605;-84
2022/06/28 22:59:59;;;;;;;15.95;14.25;;;;;;;19.91;99.63;99343.92;4356604;80;22331;-85
2022/06/28 23:06:01;;;;;;;14.60;13.13;;;;;;;19.79;99.64;99319.58;4287906;81;20991;-85
2022/06/28 23:12:03;;;;;;;16.25;14.13;;;;;;;19.66;100.00;99316.66;4362619;80;21035;-85
2022/06/28 23:18:04;;;;;;;15.68;11.35;;;;;;;19.62;100.00;99320.11;4354534;80;21024;-86
2022/06/28 23:24:06;;;;;;;20.60;12.95;;;;;;;19.60;100.00;99326.71;4350801;80;21001;-85
2022/06/28 23:30:09;;;;;;;17.98;14.28;;;;;;;19.66;100.00;99340.27;4294563;81;21017;-85
2022/06/28 23:36:10;;;;;;;19.48;13.48;;;;;;;19.70;100.00;99336.80;4331109;80;21060;-86
2022/06/28 23:42:12;;;;;;;16.62;14.05;;;;;;;19.76;100.00;99330.16;4315875;81;21929;-85
2022/06/28 23:48:19;;;;;;;15.43;13.15;;;;;;;19.69;100.00;99324.73;4313232;81;21004;-85
